createdAt,value
2018-09-08T00:02:10.607Z,100535.46
2018-09-08T00:04:38.841Z,100540.55
2018-09-08T00:07:12.577Z,100541.48
2018-09-08T00:09:40.701Z,100536.20
2018-09-08T00:12:08.927Z,100536.77
2018-09-08T00:14:36.509Z,100541.58
2018-09-08T00:17:10.969Z,100537.97
2018-09-08T00:19:44.885Z,100541.53
2018-09-08T00:22:18.589Z,100541.58
2018-09-08T00:24:52.333Z,100544.09
2018-09-08T00:27:25.955Z,100551.38
2018-09-08T00:29:54.197Z,100555.69
2018-09-08T00:32:22.893Z,100545.78
2018-09-08T00:34:51.150Z,100558.63
2018-09-08T00:37:19.393Z,100561.25
2018-09-08T00:39:50.977Z,100563.48
2018-09-08T00:42:19.389Z,100564.32
2018-09-08T00:44:47.578Z,100561.77
2018-09-08T00:47:16.150Z,100572.30
2018-09-08T00:49:44.380Z,100574.94
2018-09-08T00:52:13.239Z,100579.24
2018-09-08T00:54:41.433Z,100579.16
2018-09-08T00:57:09.759Z,100586.30
2018-09-08T00:59:37.984Z,100589.59
2018-09-08T01:02:06.195Z,100589.39
2018-09-08T01:04:36.486Z,100595.92
2018-09-08T01:07:07.704Z,100590.98
2018-09-08T01:09:35.860Z,100591.53
2018-09-08T01:12:04.052Z,100592.50
2018-09-08T01:14:32.161Z,100587.59
2018-09-08T01:17:00.344Z,100589.87
2018-09-08T01:19:28.621Z,100597.88
2018-09-08T01:21:56.874Z,100593.67
2018-09-08T01:24:25.008Z,100600.19
2018-09-08T01:26:53.165Z,100605.96
2018-09-08T01:29:21.294Z,100608.16
2018-09-08T01:31:49.499Z,100606.87
2018-09-08T01:34:17.769Z,100604.93
2018-09-08T01:36:46.068Z,100604.56
2018-09-08T01:39:14.217Z,100612.30
2018-09-08T01:41:42.392Z,100607.57
2018-09-08T01:44:10.618Z,100609.05
2018-09-08T01:46:38.944Z,100612.55
2018-09-08T01:49:07.261Z,100609.95
2018-09-08T01:51:35.417Z,100608.03
2018-09-08T01:54:03.644Z,100611.13
2018-09-08T01:56:31.929Z,100608.58
2018-09-08T01:59:07.414Z,100614.88
2018-09-08T02:01:35.627Z,100614.47
2018-09-08T02:04:03.770Z,100615.98
2018-09-08T02:06:31.877Z,100614.93
2018-09-08T02:09:00.021Z,100619.66
2018-09-08T02:11:28.216Z,100620.02
2018-09-08T02:13:56.465Z,100623.09
2018-09-08T02:16:24.713Z,100623.05
2018-09-08T02:18:52.928Z,100617.90
2018-09-08T02:21:21.163Z,100622.39
2018-09-08T02:23:49.287Z,100633.15
2018-09-08T02:26:17.568Z,100624.52
2018-09-08T02:28:45.943Z,100640.39
2018-09-08T02:31:14.288Z,100638.41
2018-09-08T02:33:42.452Z,100642.47
2018-09-08T02:36:10.692Z,100645.19
2018-09-08T02:38:38.950Z,100649.05
2018-09-08T02:41:07.208Z,100649.05
2018-09-08T02:43:35.493Z,100651.42
2018-09-08T02:46:03.674Z,100648.50
2018-09-08T02:48:31.922Z,100648.93
2018-09-08T02:50:58.454Z,100659.48
2018-09-08T02:53:25.066Z,100648.50
2018-09-08T02:55:51.563Z,100657.02
2018-09-08T02:58:18.075Z,100657.89
2018-09-08T03:00:44.594Z,100657.66
2018-09-08T03:03:11.114Z,100668.11
2018-09-08T03:05:37.646Z,100669.83
2018-09-08T03:08:04.176Z,100662.73
2018-09-08T03:10:30.743Z,100672.46
2018-09-08T03:12:57.366Z,100674.05
2018-09-08T03:15:23.868Z,100677.17
2018-09-08T03:17:50.393Z,100672.89
2018-09-08T03:20:16.902Z,100675.80
2018-09-08T03:22:43.402Z,100680.44
2018-09-08T03:25:09.956Z,100688.97
2018-09-08T03:27:36.569Z,100689.13
2018-09-08T03:30:03.080Z,100690.34
2018-09-08T03:32:29.712Z,100695.41
2018-09-08T03:34:56.232Z,100696.00
2018-09-08T03:37:22.758Z,100701.14
2018-09-08T03:39:49.267Z,100699.42
2018-09-08T03:42:15.773Z,100703.96
2018-09-08T03:44:42.314Z,100699.22
2018-09-08T03:47:08.872Z,100704.89
2018-09-08T03:49:35.390Z,100708.95
2018-09-08T03:52:02.092Z,100708.80
2018-09-08T03:54:28.633Z,100712.13
2018-09-08T03:56:55.152Z,100710.17
2018-09-08T03:59:21.650Z,100710.94
2018-09-08T04:01:48.179Z,100716.41
2018-09-08T04:04:16.320Z,100720.28
2018-09-08T04:06:45.115Z,100725.94
2018-09-08T04:09:13.231Z,100723.83
2018-09-08T04:11:41.331Z,100726.60
2018-09-08T04:14:09.496Z,100727.02
2018-09-08T04:16:37.698Z,100725.80
2018-09-08T04:19:06.511Z,100724.13
2018-09-08T04:21:34.629Z,100725.52
2018-09-08T04:24:02.919Z,100733.18
2018-09-08T04:26:31.029Z,100736.63
2018-09-08T04:28:59.235Z,100729.44
2018-09-08T04:31:27.357Z,100738.39
2018-09-08T04:33:56.121Z,100738.68
2018-09-08T04:36:24.252Z,100743.05
2018-09-08T04:38:52.407Z,100742.52
2018-09-08T04:41:20.675Z,100740.88
2018-09-08T04:43:48.911Z,100747.27
2018-09-08T04:46:17.177Z,100756.05
2018-09-08T04:48:45.415Z,100753.20
2018-09-08T04:51:14.451Z,100756.00
2018-09-08T04:53:43.361Z,100756.08
2018-09-08T04:56:12.409Z,100757.81
2018-09-08T04:58:40.727Z,100764.48
2018-09-08T05:01:08.931Z,100767.58
2018-09-08T05:03:37.317Z,100765.38
2018-09-08T05:06:05.484Z,100765.25
2018-09-08T05:08:33.827Z,100770.35
2018-09-08T05:11:02.008Z,100769.75
2018-09-08T05:13:30.294Z,100769.00
2018-09-08T05:15:58.469Z,100777.35
2018-09-08T05:18:26.726Z,100775.54
2018-09-08T05:20:57.694Z,100773.20
2018-09-08T05:23:25.932Z,100779.47
2018-09-08T05:25:54.102Z,100782.75
2018-09-08T05:28:22.270Z,100783.88
2018-09-08T05:30:51.306Z,100787.66
2018-09-08T05:33:19.598Z,100788.32
2018-09-08T05:35:47.826Z,100786.76
2018-09-08T05:38:16.576Z,100790.97
2018-09-08T05:40:45.452Z,100790.27
2018-09-08T05:43:13.584Z,100795.78
2018-09-08T05:45:41.757Z,100797.42
2018-09-08T05:48:10.017Z,100800.13
2018-09-08T05:50:38.862Z,100809.76
2018-09-08T05:53:07.377Z,100805.68
2018-09-08T05:55:35.689Z,100815.55
2018-09-08T05:58:03.793Z,100811.41
2018-09-08T06:00:31.913Z,100811.59
2018-09-08T06:03:00.077Z,100819.16
2018-09-08T06:05:28.269Z,100825.66
2018-09-08T06:07:56.537Z,100824.51
2018-09-08T06:10:24.966Z,100825.99
2018-09-08T06:12:52.889Z,100828.05
2018-09-08T06:15:21.058Z,100831.92
2018-09-08T06:17:49.193Z,100831.53
2018-09-08T06:20:17.413Z,100832.16
2018-09-08T06:22:45.539Z,100830.97
2018-09-08T06:25:13.829Z,100834.13
2018-09-08T06:27:41.969Z,100834.00
2018-09-08T06:30:10.158Z,100839.08
2018-09-08T06:32:38.335Z,100843.34
2018-09-08T06:35:06.455Z,100851.53
2018-09-08T06:37:35.301Z,100850.70
2018-09-08T06:40:03.494Z,100839.64
2018-09-08T06:42:31.676Z,100847.45
2018-09-08T06:44:59.989Z,100846.90
2018-09-08T06:47:28.076Z,100856.38
2018-09-08T06:49:56.304Z,100857.45
2018-09-08T06:52:24.514Z,100858.88
2018-09-08T06:54:52.777Z,100867.38
2018-09-08T06:57:20.924Z,100856.39
2018-09-08T06:59:49.077Z,100859.20
2018-09-08T07:02:17.172Z,100858.28
2018-09-08T07:04:45.352Z,100862.95
2018-09-08T07:07:13.482Z,100869.75
2018-09-08T07:09:42.836Z,100859.08
2018-09-08T07:12:11.307Z,100856.88
2018-09-08T07:14:39.566Z,100860.70
2018-09-08T07:17:07.816Z,100864.95
2018-09-08T07:19:36.086Z,100862.27
2018-09-08T07:22:04.503Z,100857.55
2018-09-08T07:24:32.693Z,100860.68
2018-09-08T07:27:01.148Z,100862.70
2018-09-08T07:29:29.462Z,100868.38
2018-09-08T07:31:57.782Z,100858.55
2018-09-08T07:34:26.010Z,100864.42
2018-09-08T07:36:54.241Z,100869.09
2018-09-08T07:39:22.440Z,100870.19
2018-09-08T07:41:50.582Z,100862.02
2018-09-08T07:44:18.788Z,100864.31
2018-09-08T07:46:46.985Z,100867.37
2018-09-08T07:49:15.248Z,100868.39
2018-09-08T07:51:43.649Z,100859.09
2018-09-08T07:54:12.046Z,100860.52
2018-09-08T07:56:40.222Z,100874.88
2018-09-08T07:59:08.388Z,100880.14
2018-09-08T08:01:36.524Z,100868.94
2018-09-08T08:04:04.671Z,100860.63
2018-09-08T08:06:33.757Z,100874.56
2018-09-08T08:09:01.973Z,100868.45
2018-09-08T08:11:30.125Z,100870.97
2018-09-08T08:13:58.251Z,100871.70
2018-09-08T08:16:26.359Z,100872.55
2018-09-08T08:18:54.560Z,100870.38
2018-09-08T08:21:22.733Z,100880.08
2018-09-08T08:23:51.191Z,100880.99
2018-09-08T08:26:19.353Z,100892.67
2018-09-08T08:28:47.561Z,100886.27
2018-09-08T08:31:15.900Z,100879.69
2018-09-08T08:33:44.184Z,100880.41
2018-09-08T08:36:12.344Z,100883.34
2018-09-08T08:38:40.541Z,100873.63
2018-09-08T08:41:08.664Z,100886.54
2018-09-08T08:43:36.830Z,100882.99
2018-09-08T08:46:05.083Z,100875.87
2018-09-08T08:48:33.529Z,100878.73
2018-09-08T08:51:18.823Z,100872.86
2018-09-08T08:54:04.153Z,100878.92
2018-09-08T08:56:32.353Z,100880.09
2018-09-08T08:59:00.511Z,100876.20
2018-09-08T09:01:28.617Z,100876.53
2018-09-08T09:03:56.841Z,100873.44
2018-09-08T09:06:25.145Z,100881.41
2018-09-08T09:08:53.339Z,100877.25
2018-09-08T09:11:21.539Z,100886.03
2018-09-08T09:13:49.823Z,100884.91
2018-09-08T09:16:18.001Z,100877.45
2018-09-08T09:19:03.877Z,100877.63
2018-09-08T09:21:48.727Z,100877.72
2018-09-08T09:25:07.894Z,100872.62
2018-09-08T09:27:42.556Z,100873.28
2018-09-08T09:30:11.244Z,100870.05
2018-09-08T09:32:39.402Z,100876.08
2018-09-08T09:35:09.868Z,100872.39
2018-09-08T09:37:38.009Z,100867.30
2018-09-08T09:40:07.876Z,100858.12
2018-09-08T09:42:36.028Z,100852.45
2018-09-08T09:45:04.608Z,100857.30
2018-09-08T09:47:32.820Z,100865.58
2018-09-08T09:50:00.944Z,100863.47
2018-09-08T09:52:29.447Z,100860.55
2018-09-08T09:54:57.666Z,100856.73
2018-09-08T09:57:25.874Z,100857.89
2018-09-08T09:59:54.132Z,100860.55
2018-09-08T10:02:37.968Z,100856.50
2018-09-08T10:05:08.066Z,100853.98
2018-09-08T10:07:36.237Z,100860.73
2018-09-08T10:10:05.632Z,100846.09
2018-09-08T10:12:34.044Z,100850.50
2018-09-08T10:15:02.205Z,100849.84
2018-09-08T10:17:30.374Z,100859.59
2018-09-08T10:19:58.598Z,100860.27
2018-09-08T10:22:26.832Z,100854.94
2018-09-08T10:24:55.090Z,100851.46
2018-09-08T10:27:23.216Z,100838.36
2018-09-08T10:29:52.500Z,100851.01
2018-09-08T10:32:20.285Z,100848.70
2018-09-08T10:34:48.615Z,100841.83
2018-09-08T10:37:16.849Z,100842.58
2018-09-08T10:39:45.156Z,100838.51
2018-09-08T10:42:13.461Z,100829.03
2018-09-08T10:44:41.593Z,100833.95
2018-09-08T10:47:10.331Z,100837.30
2018-09-08T10:49:38.567Z,100838.05
2018-09-08T10:52:40.549Z,100829.75
2018-09-08T10:55:08.729Z,100836.92
2018-09-08T10:57:36.926Z,100837.80
2018-09-08T11:00:05.769Z,100829.66
2018-09-08T11:02:34.081Z,100837.16
2018-09-08T11:05:02.522Z,100831.20
2018-09-08T11:07:31.174Z,100829.08
2018-09-08T11:09:59.602Z,100826.38
2018-09-08T11:12:27.941Z,100823.52
2018-09-08T11:14:56.313Z,100829.30
2018-09-08T11:17:24.586Z,100827.70
2018-09-08T11:19:53.021Z,100829.50
2018-09-08T11:22:21.208Z,100824.39
2018-09-08T11:24:49.504Z,100823.52
2018-09-08T11:27:17.768Z,100828.26
2018-09-08T11:29:46.040Z,100832.91
2018-09-08T11:32:14.279Z,100824.11
2018-09-08T11:34:42.538Z,100824.17
2018-09-08T11:37:10.738Z,100813.91
2018-09-08T11:39:38.919Z,100820.77
2018-09-08T11:42:07.096Z,100813.17
2018-09-08T11:44:35.214Z,100812.52
2018-09-08T11:47:03.371Z,100815.89
2018-09-08T11:49:31.580Z,100810.30
2018-09-08T11:51:59.747Z,100809.09
2018-09-08T11:54:27.932Z,100801.53
2018-09-08T11:56:56.517Z,100798.97
2018-09-08T11:59:24.701Z,100801.81
2018-09-08T12:01:52.843Z,100796.16
2018-09-08T12:04:20.997Z,100806.92
2018-09-08T12:06:49.259Z,100810.43
2018-09-08T12:09:17.483Z,100793.95
2018-09-08T12:11:45.720Z,100801.03
2018-09-08T12:14:13.958Z,100798.25
2018-09-08T12:16:42.176Z,100797.06
2018-09-08T12:19:10.550Z,100801.03
2018-09-08T12:21:38.840Z,100791.30
2018-09-08T12:24:07.121Z,100794.19
2018-09-08T12:26:35.452Z,100784.53
2018-09-08T12:29:03.935Z,100790.28
2018-09-08T12:31:32.227Z,100777.33
2018-09-08T12:34:01.809Z,100778.42
2018-09-08T12:36:30.045Z,100778.35
2018-09-08T12:38:58.536Z,100776.09
2018-09-08T12:41:26.583Z,100775.31
2018-09-08T12:43:55.449Z,100779.70
2018-09-08T12:46:23.661Z,100774.39
2018-09-08T12:48:51.895Z,100773.50
2018-09-08T12:51:20.083Z,100763.99
2018-09-08T12:53:48.353Z,100762.48
2018-09-08T12:56:16.610Z,100762.37
2018-09-08T12:58:46.580Z,100768.98
2018-09-08T13:01:15.026Z,100765.28
2018-09-08T13:03:43.331Z,100767.16
2018-09-08T13:06:11.579Z,100761.90
2018-09-08T13:08:39.767Z,100753.58
2018-09-08T13:11:08.082Z,100756.39
2018-09-08T13:13:36.501Z,100760.75
2018-09-08T13:16:04.789Z,100749.92
2018-09-08T13:18:32.990Z,100752.19
2018-09-08T13:21:01.260Z,100748.04
2018-09-08T13:23:29.392Z,100742.27
2018-09-08T13:25:57.588Z,100745.84
2018-09-08T13:28:25.698Z,100744.36
2018-09-08T13:30:53.899Z,100736.48
2018-09-08T13:33:21.970Z,100733.73
2018-09-08T13:35:50.098Z,100733.45
2018-09-08T13:38:18.363Z,100729.22
2018-09-08T13:40:46.576Z,100735.79
2018-09-08T13:43:14.802Z,100728.80
2018-09-08T13:45:43.125Z,100724.91
2018-09-08T13:48:11.259Z,100728.63
2018-09-08T13:50:39.455Z,100736.94
2018-09-08T13:53:07.634Z,100732.64
2018-09-08T13:55:35.818Z,100737.08
2018-09-08T13:58:04.548Z,100732.78
2018-09-08T14:00:33.410Z,100732.37
2018-09-08T14:03:01.850Z,100735.26
2018-09-08T14:05:30.035Z,100735.66
2018-09-08T14:08:02.785Z,100737.05
2018-09-08T14:10:30.975Z,100732.11
2018-09-08T14:12:59.176Z,100725.90
2018-09-08T14:15:27.664Z,100725.27
2018-09-08T14:17:55.778Z,100712.88
2018-09-08T14:20:23.923Z,100722.89
2018-09-08T14:22:52.150Z,100715.75
2018-09-08T14:25:20.303Z,100717.56
2018-09-08T14:27:48.443Z,100712.97
2018-09-08T14:30:16.513Z,100707.94
2018-09-08T14:32:44.664Z,100713.38
2018-09-08T14:35:12.848Z,100708.95
2018-09-08T14:37:41.061Z,100707.82
2018-09-08T14:40:09.257Z,100698.95
2018-09-08T14:42:37.481Z,100691.52
2018-09-08T14:45:05.880Z,100694.50
2018-09-08T14:47:34.108Z,100697.75
2018-09-08T14:50:02.227Z,100707.70
2018-09-08T14:52:30.477Z,100708.44
2018-09-08T14:54:58.644Z,100708.66
2018-09-08T14:57:26.965Z,100711.92
2018-09-08T14:59:55.109Z,100715.69
2018-09-08T15:02:23.929Z,100716.98
2018-09-08T15:04:52.108Z,100712.77
2018-09-08T15:07:20.167Z,100721.92
2018-09-08T15:09:48.290Z,100709.55
2018-09-08T15:12:16.443Z,100707.30
2018-09-08T15:14:44.562Z,100698.91
2018-09-08T15:17:12.707Z,100697.67
2018-09-08T15:19:41.020Z,100693.19
2018-09-08T15:22:09.207Z,100694.70
2018-09-08T15:24:37.410Z,100694.13
2018-09-08T15:27:05.596Z,100684.26
2018-09-08T15:29:33.807Z,100679.24
2018-09-08T15:32:02.174Z,100685.13
2018-09-08T15:34:30.359Z,100684.84
2018-09-08T15:36:58.760Z,100682.82
2018-09-08T15:39:26.925Z,100692.55
2018-09-08T15:41:55.796Z,100693.27
2018-09-08T15:44:23.912Z,100698.43
2018-09-08T15:46:52.074Z,100686.38
2018-09-08T15:49:20.194Z,100682.15
2018-09-08T15:51:48.444Z,100682.00
2018-09-08T15:54:16.612Z,100679.33
2018-09-08T15:56:44.748Z,100676.95
2018-09-08T15:59:13.202Z,100674.27
2018-09-08T16:01:41.368Z,100673.67
2018-09-08T16:04:09.452Z,100677.34
2018-09-08T16:06:37.627Z,100672.68
2018-09-08T16:09:06.851Z,100675.70
2018-09-08T16:11:35.079Z,100675.34
2018-09-08T16:14:03.271Z,100680.14
2018-09-08T16:16:31.567Z,100682.36
2018-09-08T16:18:59.805Z,100681.83
2018-09-08T16:21:28.039Z,100694.60
2018-09-08T16:23:56.354Z,100690.64
2018-09-08T16:26:24.535Z,100688.23
2018-09-08T16:28:52.894Z,100686.03
2018-09-08T16:31:22.023Z,100681.12
2018-09-08T16:33:50.217Z,100676.45
2018-09-08T16:36:18.534Z,100684.47
2018-09-08T16:38:46.810Z,100681.37
2018-09-08T16:41:14.927Z,100674.00
2018-09-08T16:43:43.190Z,100683.11
2018-09-08T16:46:11.431Z,100679.67
2018-09-08T16:48:39.658Z,100679.84
2018-09-08T16:51:07.840Z,100674.78
2018-09-08T16:53:36.137Z,100674.67
2018-09-08T16:56:04.449Z,100678.05
2018-09-08T16:58:32.731Z,100680.07
2018-09-08T17:01:00.891Z,100688.67
2018-09-08T17:03:29.041Z,100698.34
2018-09-08T17:05:57.132Z,100690.98
2018-09-08T17:08:25.266Z,100689.95
2018-09-08T17:10:53.399Z,100688.06
2018-09-08T17:13:21.676Z,100682.02
2018-09-08T17:15:49.902Z,100690.30
2018-09-08T17:18:18.074Z,100688.95
2018-09-08T17:20:46.226Z,100686.22
2018-09-08T17:23:14.328Z,100688.42
2018-09-08T17:25:42.499Z,100688.44
2018-09-08T17:28:10.735Z,100689.27
2018-09-08T17:30:38.972Z,100696.14
2018-09-08T17:33:07.190Z,100691.22
2018-09-08T17:35:35.484Z,100694.27
2018-09-08T17:38:03.757Z,100694.55
2018-09-08T17:40:31.945Z,100692.62
2018-09-08T17:43:00.205Z,100693.75
2018-09-08T17:45:28.430Z,100696.20
2018-09-08T17:47:56.710Z,100693.18
2018-09-08T17:50:24.965Z,100697.83
2018-09-08T17:52:53.191Z,100703.03
2018-09-08T17:55:21.466Z,100697.55
2018-09-08T17:57:49.681Z,100698.08
2018-09-08T18:00:17.903Z,100701.64
2018-09-08T18:02:46.284Z,100707.39
2018-09-08T18:05:15.527Z,100712.27
2018-09-08T18:07:44.062Z,100710.91
2018-09-08T18:10:12.804Z,100717.46
2018-09-08T18:12:40.990Z,100732.19
2018-09-08T18:15:10.419Z,100733.85
2018-09-08T18:17:38.590Z,100740.98
2018-09-08T18:20:06.859Z,100742.60
2018-09-08T18:22:36.555Z,100745.34
2018-09-08T18:25:05.259Z,100744.43
2018-09-08T18:27:33.570Z,100741.13
2018-09-08T18:30:01.840Z,100744.66
2018-09-08T18:32:30.006Z,100750.94
2018-09-08T18:34:58.361Z,100744.93
2018-09-08T18:37:27.375Z,100743.59
2018-09-08T18:39:56.065Z,100751.52
2018-09-08T18:42:24.431Z,100755.06
2018-09-08T18:44:52.690Z,100754.77
2018-09-08T18:47:20.861Z,100765.13
2018-09-08T18:49:49.111Z,100763.47
2018-09-08T18:52:17.243Z,100767.22
2018-09-08T18:54:45.415Z,100767.45
2018-09-08T18:57:13.636Z,100765.48
2018-09-08T18:59:42.487Z,100769.28
2018-09-08T19:02:10.683Z,100772.32
2018-09-08T19:04:39.239Z,100771.45
2018-09-08T19:07:07.436Z,100774.19
2018-09-08T19:09:35.602Z,100773.02
2018-09-08T19:12:03.762Z,100767.78
2018-09-08T19:14:37.986Z,100775.34
2018-09-08T19:17:06.161Z,100778.03
2018-09-08T19:19:34.311Z,100778.25
2018-09-08T19:22:02.506Z,100780.11
2018-09-08T19:24:36.535Z,100776.75
2018-09-08T19:27:04.930Z,100785.44
2018-09-08T19:29:38.802Z,100791.64
2018-09-08T19:32:06.952Z,100789.33
2018-09-08T19:34:35.224Z,100791.19
2018-09-08T19:37:03.510Z,100787.91
2018-09-08T19:39:31.862Z,100795.53
2018-09-08T19:42:00.002Z,100796.91
2018-09-08T19:44:28.168Z,100802.72
2018-09-08T19:47:01.924Z,100806.02
2018-09-08T19:49:30.390Z,100807.44
2018-09-08T19:51:58.622Z,100804.19
2018-09-08T19:54:26.869Z,100801.36
2018-09-08T19:57:00.667Z,100804.82
2018-09-08T19:59:28.812Z,100808.81
2018-09-08T20:01:56.943Z,100804.18
2018-09-08T20:04:25.095Z,100808.95
2018-09-08T20:06:53.831Z,100807.33
2018-09-08T20:09:22.067Z,100810.95
2018-09-08T20:11:50.254Z,100816.81
2018-09-08T20:14:18.376Z,100818.45
2018-09-08T20:16:46.527Z,100821.92
2018-09-08T20:19:14.825Z,100822.71
2018-09-08T20:21:44.422Z,100819.66
2018-09-08T20:24:13.407Z,100821.48
2018-09-08T20:26:42.551Z,100817.67
2018-09-08T20:29:13.458Z,100819.87
2018-09-08T20:31:42.300Z,100816.83
2018-09-08T20:34:10.470Z,100817.31
2018-09-08T20:36:38.711Z,100819.05
2018-09-08T20:39:07.827Z,100816.83
2018-09-08T20:41:36.045Z,100812.22
2018-09-08T20:44:04.931Z,100812.00
2018-09-08T20:46:33.793Z,100804.91
2018-09-08T20:49:01.887Z,100809.58
2018-09-08T20:51:30.145Z,100810.70
2018-09-08T20:53:58.306Z,100805.48
2018-09-08T20:56:26.525Z,100798.82
2018-09-08T20:58:55.375Z,100797.77
2018-09-08T21:01:24.167Z,100793.53
2018-09-08T21:03:52.278Z,100791.42
2018-09-08T21:06:20.409Z,100789.20
2018-09-08T21:08:49.525Z,100791.42
2018-09-08T21:11:17.789Z,100792.77
2018-09-08T21:13:46.293Z,100792.38
2018-09-08T21:16:15.381Z,100802.25
2018-09-08T21:18:44.261Z,100801.14
2018-09-08T21:21:13.416Z,100795.42
2018-09-08T21:23:41.761Z,100795.04
2018-09-08T21:26:10.687Z,100807.08
2018-09-08T21:28:38.835Z,100806.95
2018-09-08T21:31:08.249Z,100809.67
2018-09-08T21:33:37.477Z,100815.08
2018-09-08T21:36:06.491Z,100817.78
2018-09-08T21:38:36.181Z,100820.84
2018-09-08T21:41:05.336Z,100824.09
2018-09-08T21:43:33.645Z,100822.78
2018-09-08T21:46:02.427Z,100824.99
2018-09-08T21:48:30.617Z,100826.30
2018-09-08T21:51:01.068Z,100818.28
2018-09-08T21:53:29.293Z,100820.33
2018-09-08T21:55:57.714Z,100818.69
2018-09-08T21:58:25.918Z,100810.77
2018-09-08T22:00:55.755Z,100804.74
2018-09-08T22:03:25.719Z,100798.61
2018-09-08T22:05:53.844Z,100793.88
2018-09-08T22:08:22.070Z,100788.58
2018-09-08T22:10:53.224Z,100799.66
2018-09-08T22:13:22.316Z,100793.52
2018-09-08T22:15:52.201Z,100800.42
2018-09-08T22:18:20.924Z,100796.27
2018-09-08T22:20:49.679Z,100795.73
2018-09-08T22:23:17.814Z,100795.09
2018-09-08T22:25:46.075Z,100798.83
2018-09-08T22:28:14.615Z,100805.77
2018-09-08T22:30:42.912Z,100811.07
2018-09-08T22:33:12.072Z,100813.31
2018-09-08T22:35:40.817Z,100812.63
2018-09-08T22:38:09.079Z,100808.02
2018-09-08T22:40:37.463Z,100807.81
2018-09-08T22:43:05.806Z,100807.76
2018-09-08T22:45:34.123Z,100809.56
2018-09-08T22:48:03.419Z,100812.38
2018-09-08T22:50:31.638Z,100804.65
2018-09-08T22:52:59.885Z,100807.74
2018-09-08T22:55:28.391Z,100813.92
2018-09-08T22:57:57.206Z,100819.65
2018-09-08T23:00:25.519Z,100826.98
2018-09-08T23:02:53.662Z,100824.81
2018-09-08T23:05:21.835Z,100838.80
2018-09-08T23:07:50.035Z,100849.52
2018-09-08T23:10:18.308Z,100831.06
2018-09-08T23:12:46.614Z,100829.27
2018-09-08T23:15:14.821Z,100837.19
2018-09-08T23:17:43.049Z,100818.59
2018-09-08T23:20:12.293Z,100832.73
2018-09-08T23:22:41.256Z,100822.46
2018-09-08T23:25:09.589Z,100819.98
2018-09-08T23:27:37.741Z,100818.47
2018-09-08T23:30:06.125Z,100825.92
2018-09-08T23:32:34.309Z,100824.81
2018-09-08T23:35:03.173Z,100825.53
2018-09-08T23:37:31.452Z,100826.86
2018-09-08T23:39:59.666Z,100832.45
2018-09-08T23:42:27.940Z,100824.41
2018-09-08T23:44:56.107Z,100827.72
2018-09-08T23:47:24.316Z,100826.36
2018-09-08T23:49:52.676Z,100832.69
2018-09-08T23:52:20.827Z,100831.77
2018-09-08T23:54:49.320Z,100830.30
2018-09-08T23:57:17.492Z,100824.69
2018-09-08T23:59:45.626Z,100826.26
